Time;durP1;ratioP1;P1;durP2;ratioP2;P2;SDS_P1;SDS_P2;PMS_P1;PMS_P2;Temp;Humidity;BMP_temperature;BMP_pressure;BME280_temperature;BME280_humidity;BME280_pressure;Samples;Min_cycle;Max_cycle;Signal;HPM_P1;HPM_P2
2023/04/24 00:01:31;;;;;;;0.75;0.70;;;;;;;;;;5084998;28;20527;-68
2023/04/24 00:03:59;;;;;;;0.60;0.50;;;;;;;;;;5084949;28;20200;-68
2023/04/24 00:06:32;;;;;;;0.50;0.50;;;;;;;;;;5085183;28;20498;-68
2023/04/24 00:08:59;;;;;;;0.63;0.60;;;;;;;;;;5084797;28;20527;-68
2023/04/24 00:11:25;;;;;;;0.77;0.60;;;;;;;;;;5085009;28;20269;-68
2023/04/24 00:13:51;;;;;;;0.60;0.60;;;;;;;;;;5084808;28;20204;-68
2023/04/24 00:16:17;;;;;;;0.65;0.65;;;;;;;;;;5084867;28;20255;-68
2023/04/24 00:18:44;;;;;;;1.95;0.70;;;;;;;;;;5084655;28;20201;-68
2023/04/24 00:21:11;;;;;;;0.98;0.52;;;;;;;;;;5084594;28;20196;-68
2023/04/24 00:23:38;;;;;;;0.50;0.50;;;;;;;;;;5084739;28;20226;-68
2023/04/24 00:26:05;;;;;;;0.57;0.57;;;;;;;;;;5084440;28;20523;-68
2023/04/24 00:28:31;;;;;;;0.80;0.50;;;;;;;;;;5084332;28;20262;-68
2023/04/24 00:30:57;;;;;;;2.40;0.60;;;;;;;;;;5084719;28;20254;-68
2023/04/24 00:33:23;;;;;;;1.38;0.70;;;;;;;;;;5084698;28;20196;-68
2023/04/24 00:35:49;;;;;;;0.68;0.60;;;;;;;;;;5084413;28;20282;-69
2023/04/24 00:38:16;;;;;;;1.65;0.60;;;;;;;;;;5084192;28;20430;-68
2023/04/24 00:40:43;;;;;;;0.77;0.77;;;;;;;;;;5084478;28;20204;-68
2023/04/24 00:43:10;;;;;;;0.70;0.70;;;;;;;;;;5084234;28;20216;-68
2023/04/24 00:45:36;;;;;;;0.80;0.80;;;;;;;;;;5084046;28;20197;-68
2023/04/24 00:48:02;;;;;;;0.50;0.50;;;;;;;;;;5084148;28;20428;-68
2023/04/24 00:50:29;;;;;;;1.27;1.27;;;;;;;;;;5084265;28;20425;-68
2023/04/24 00:52:55;;;;;;;1.50;1.40;;;;;;;;;;5084126;28;20204;-68
2023/04/24 00:55:21;;;;;;;1.35;1.30;;;;;;;;;;5084312;28;20254;-68
2023/04/24 00:57:49;;;;;;;6.50;1.30;;;;;;;;;;5084250;28;20201;-68
2023/04/24 01:00:16;;;;;;;1.23;0.98;;;;;;;;;;5083919;28;20204;-68
2023/04/24 01:02:44;;;;;;;1.38;0.95;;;;;;;;;;5084075;28;20207;-68
2023/04/24 01:05:12;;;;;;;0.90;0.90;;;;;;;;;;5083859;28;20196;-68
2023/04/24 01:07:39;;;;;;;0.93;0.93;;;;;;;;;;5083737;28;20200;-69
2023/04/24 01:10:06;;;;;;;0.60;0.60;;;;;;;;;;5083658;28;20231;-68
2023/04/24 01:12:33;;;;;;;3.42;0.80;;;;;;;;;;5083744;28;20381;-68
2023/04/24 01:15:00;;;;;;;0.70;0.70;;;;;;;;;;5083458;28;20242;-68
2023/04/24 01:17:27;;;;;;;1.08;0.77;;;;;;;;;;5083566;28;20196;-68
2023/04/24 01:19:53;;;;;;;0.50;0.50;;;;;;;;;;5083321;28;20209;-68
2023/04/24 01:22:21;;;;;;;2.30;0.50;;;;;;;;;;5083712;28;20203;-68
2023/04/24 01:24:48;;;;;;;0.55;0.55;;;;;;;;;;5083878;28;20430;-68
2023/04/24 01:27:14;;;;;;;1.45;0.77;;;;;;;;;;5083129;28;20409;-68
2023/04/24 01:29:40;;;;;;;0.80;0.70;;;;;;;;;;5083653;28;20284;-68
2023/04/24 01:32:07;;;;;;;0.60;0.60;;;;;;;;;;5083470;28;20196;-68
2023/04/24 01:34:33;;;;;;;1.40;0.63;;;;;;;;;;5083400;28;20196;-68
2023/04/24 01:37:00;;;;;;;1.33;0.60;;;;;;;;;;5083246;28;20216;-68
2023/04/24 01:39:28;;;;;;;0.70;0.70;;;;;;;;;;5083065;28;20196;-68
2023/04/24 01:41:54;;;;;;;0.60;0.60;;;;;;;;;;5083439;28;20200;-68
2023/04/24 01:44:21;;;;;;;0.57;0.50;;;;;;;;;;5083023;28;20192;-68
2023/04/24 01:46:47;;;;;;;0.70;0.70;;;;;;;;;;5083128;28;20509;-68
2023/04/24 01:49:13;;;;;;;1.05;0.55;;;;;;;;;;5082777;28;20200;-68
2023/04/24 01:51:40;;;;;;;2.10;0.70;;;;;;;;;;5083260;28;20246;-68
2023/04/24 01:54:06;;;;;;;0.60;0.60;;;;;;;;;;5083294;28;20204;-69
2023/04/24 01:56:34;;;;;;;0.60;0.60;;;;;;;;;;5082895;28;20283;-68
2023/04/24 01:59:01;;;;;;;1.02;0.60;;;;;;;;;;5082174;28;20200;-68
2023/04/24 02:01:27;;;;;;;0.70;0.60;;;;;;;;;;5066619;28;20430;-68
2023/04/24 02:03:53;;;;;;;1.92;0.60;;;;;;;;;;5082754;28;20503;-68
2023/04/24 02:06:19;;;;;;;0.60;0.60;;;;;;;;;;5082814;28;20196;-68
2023/04/24 02:08:46;;;;;;;0.70;0.70;;;;;;;;;;5082743;28;20200;-68
2023/04/24 02:11:12;;;;;;;1.45;0.57;;;;;;;;;;5082547;28;20211;-68
2023/04/24 02:13:39;;;;;;;0.98;0.60;;;;;;;;;;5082644;28;20434;-68
2023/04/24 02:16:06;;;;;;;0.57;0.57;;;;;;;;;;5082369;28;20453;-68
2023/04/24 02:18:32;;;;;;;1.55;0.70;;;;;;;;;;5082198;28;20434;-68
2023/04/24 02:20:58;;;;;;;1.08;0.52;;;;;;;;;;5082655;28;20223;-68
2023/04/24 02:23:25;;;;;;;0.85;0.70;;;;;;;;;;5082504;28;20220;-68
2023/04/24 02:25:53;;;;;;;1.90;0.45;;;;;;;;;;5082510;28;20559;-68
2023/04/24 02:28:19;;;;;;;0.50;0.50;;;;;;;;;;5082077;28;20224;-67
2023/04/24 02:30:46;;;;;;;1.55;0.60;;;;;;;;;;5082511;28;20546;-67
2023/04/24 02:33:13;;;;;;;1.85;0.65;;;;;;;;;;5082212;28;20201;-67
2023/04/24 02:35:39;;;;;;;2.58;0.60;;;;;;;;;;5082251;28;20228;-67
2023/04/24 02:38:05;;;;;;;0.50;0.50;;;;;;;;;;5082079;28;20231;-67
2023/04/24 02:40:32;;;;;;;0.73;0.55;;;;;;;;;;5082431;28;20197;-67
2023/04/24 02:42:58;;;;;;;1.95;0.57;;;;;;;;;;5082275;28;20249;-67
2023/04/24 02:45:25;;;;;;;0.50;0.50;;;;;;;;;;5082050;28;20193;-67
2023/04/24 02:47:52;;;;;;;0.85;0.40;;;;;;;;;;5081939;28;20204;-68
2023/04/24 02:50:18;;;;;;;0.43;0.43;;;;;;;;;;5082183;28;20204;-68
2023/04/24 02:52:45;;;;;;;1.23;0.50;;;;;;;;;;5082076;28;20242;-68
2023/04/24 02:55:11;;;;;;;1.10;0.50;;;;;;;;;;5081930;28;20389;-68
2023/04/24 02:57:37;;;;;;;1.83;0.40;;;;;;;;;;5081865;28;20200;-68
2023/04/24 03:00:06;;;;;;;0.50;0.50;;;;;;;;;;5081821;28;20200;-68
2023/04/24 03:02:32;;;;;;;1.98;0.50;;;;;;;;;;5082179;28;20508;-69
2023/04/24 03:05:00;;;;;;;1.38;0.50;;;;;;;;;;5082098;28;20255;-68
2023/04/24 03:07:27;;;;;;;1.10;0.50;;;;;;;;;;5081628;28;20193;-68
2023/04/24 03:09:53;;;;;;;1.38;0.40;;;;;;;;;;5081859;28;20270;-68
2023/04/24 03:12:19;;;;;;;0.40;0.40;;;;;;;;;;5081838;28;20524;-68
2023/04/24 03:14:46;;;;;;;0.50;0.50;;;;;;;;;;5081689;28;20216;-68
2023/04/24 03:17:12;;;;;;;0.50;0.50;;;;;;;;;;5081547;28;20243;-68
2023/04/24 03:19:38;;;;;;;1.58;0.50;;;;;;;;;;5081946;28;20306;-69
2023/04/24 03:22:06;;;;;;;0.50;0.50;;;;;;;;;;5081783;28;20380;-69
2023/04/24 03:24:32;;;;;;;0.60;0.60;;;;;;;;;;5081658;28;20197;-68
2023/04/24 03:26:58;;;;;;;2.00;1.10;;;;;;;;;;5081654;28;20250;-68
2023/04/24 03:29:24;;;;;;;4.70;0.52;;;;;;;;;;5081642;28;20516;-68
2023/04/24 03:31:51;;;;;;;0.75;0.75;;;;;;;;;;5081707;28;20197;-68
2023/04/24 03:34:17;;;;;;;1.92;0.88;;;;;;;;;;5081777;28;20200;-68
2023/04/24 03:36:43;;;;;;;0.70;0.70;;;;;;;;;;5081624;28;20220;-68
2023/04/24 03:39:11;;;;;;;2.97;0.80;;;;;;;;;;5081317;28;20246;-68
2023/04/24 03:41:37;;;;;;;0.75;0.60;;;;;;;;;;5082027;28;20201;-68
2023/04/24 03:44:03;;;;;;;0.65;0.47;;;;;;;;;;5081436;28;20208;-68
2023/04/24 03:46:29;;;;;;;1.10;0.50;;;;;;;;;;5081471;28;20231;-68
2023/04/24 03:48:56;;;;;;;1.75;0.70;;;;;;;;;;5081370;28;20660;-68
2023/04/24 03:51:22;;;;;;;0.60;0.60;;;;;;;;;;5081322;28;20246;-68
2023/04/24 03:53:48;;;;;;;0.50;0.50;;;;;;;;;;5081453;28;20235;-68
2023/04/24 03:56:16;;;;;;;0.95;0.70;;;;;;;;;;5081157;28;20396;-68
2023/04/24 03:58:43;;;;;;;2.00;0.68;;;;;;;;;;5081360;28;20541;-68
2023/04/24 04:01:10;;;;;;;2.75;0.73;;;;;;;;;;5081436;28;20430;-68
2023/04/24 04:03:36;;;;;;;0.50;0.50;;;;;;;;;;5081518;28;20250;-69
2023/04/24 04:06:02;;;;;;;0.63;0.47;;;;;;;;;;5081394;28;20246;-69
2023/04/24 04:08:29;;;;;;;0.88;0.57;;;;;;;;;;5080961;28;20258;-69
2023/04/24 04:10:55;;;;;;;0.55;0.50;;;;;;;;;;5081121;28;20403;-69
2023/04/24 04:13:22;;;;;;;0.40;0.40;;;;;;;;;;5080947;28;20246;-69
2023/04/24 04:15:49;;;;;;;2.05;0.52;;;;;;;;;;5081163;28;20405;-69
2023/04/24 04:18:15;;;;;;;1.17;0.77;;;;;;;;;;5080992;28;20208;-69
2023/04/24 04:20:41;;;;;;;0.93;0.57;;;;;;;;;;5082004;28;20205;-69
2023/04/24 04:23:07;;;;;;;2.25;0.60;;;;;;;;;;5084797;28;20508;-68
2023/04/24 04:25:34;;;;;;;0.93;0.47;;;;;;;;;;5076780;28;20208;-68
2023/04/24 04:28:01;;;;;;;1.60;0.90;;;;;;;;;;5084280;28;20238;-68
2023/04/24 04:30:32;;;;;;;1.75;0.88;;;;;;;;;;5084642;28;20201;-68
2023/04/24 04:32:58;;;;;;;1.65;0.55;;;;;;;;;;5084720;28;20200;-69
2023/04/24 04:35:24;;;;;;;5.28;0.57;;;;;;;;;;5084416;28;20201;-68
2023/04/24 04:37:51;;;;;;;0.82;0.60;;;;;;;;;;5084106;28;20547;-68
2023/04/24 04:40:17;;;;;;;0.70;0.55;;;;;;;;;;5084640;28;20205;-70
2023/04/24 04:42:45;;;;;;;1.10;0.73;;;;;;;;;;5084630;28;20200;-70
2023/04/24 04:45:12;;;;;;;1.08;0.80;;;;;;;;;;5084365;28;20199;-68
2023/04/24 04:47:40;;;;;;;2.20;0.80;;;;;;;;;;5084167;28;20197;-68
2023/04/24 04:50:07;;;;;;;2.42;0.90;;;;;;;;;;5084197;28;20247;-68
2023/04/24 04:52:33;;;;;;;1.98;0.80;;;;;;;;;;5084004;28;20400;-68
2023/04/24 04:55:00;;;;;;;0.77;0.60;;;;;;;;;;5084374;28;20515;-68
2023/04/24 04:57:26;;;;;;;1.38;0.85;;;;;;;;;;5083716;28;20216;-68
2023/04/24 04:59:52;;;;;;;2.88;1.02;;;;;;;;;;5084144;28;20200;-68
2023/04/24 05:02:18;;;;;;;0.95;0.80;;;;;;;;;;5083945;28;20200;-68
2023/04/24 05:04:46;;;;;;;0.85;0.85;;;;;;;;;;5083946;28;20246;-68
2023/04/24 05:07:12;;;;;;;1.00;1.00;;;;;;;;;;5083550;28;20196;-68
2023/04/24 05:09:38;;;;;;;2.15;0.95;;;;;;;;;;5083904;28;20204;-68
2023/04/24 05:12:05;;;;;;;1.10;0.93;;;;;;;;;;5084022;28;20201;-69
2023/04/24 05:14:31;;;;;;;1.05;1.05;;;;;;;;;;5083643;28;20208;-68
2023/04/24 05:16:57;;;;;;;1.10;1.10;;;;;;;;;;5083650;28;20220;-68
2023/04/24 05:19:23;;;;;;;1.20;1.10;;;;;;;;;;5083282;28;20207;-68
2023/04/24 05:21:51;;;;;;;1.50;1.20;;;;;;;;;;5083571;28;20201;-68
2023/04/24 05:24:17;;;;;;;1.95;1.40;;;;;;;;;;5083690;28;20246;-69
2023/04/24 05:26:43;;;;;;;1.40;1.30;;;;;;;;;;5083657;28;20433;-69
2023/04/24 05:29:09;;;;;;;1.58;1.33;;;;;;;;;;5083430;28;20462;-69
2023/04/24 05:31:36;;;;;;;1.75;1.55;;;;;;;;;;5083019;28;20546;-69
2023/04/24 05:34:02;;;;;;;1.40;1.10;;;;;;;;;;5082668;28;20258;-69
2023/04/24 05:36:28;;;;;;;1.58;1.48;;;;;;;;;;5083156;28;20228;-69
2023/04/24 05:38:56;;;;;;;1.90;1.80;;;;;;;;;;5083246;28;20206;-69
2023/04/24 05:41:22;;;;;;;1.67;1.67;;;;;;;;;;5083164;28;20427;-69
2023/04/24 05:43:49;;;;;;;1.20;1.20;;;;;;;;;;5083014;28;20238;-69
2023/04/24 05:46:15;;;;;;;2.05;1.30;;;;;;;;;;5083019;28;20200;-69
2023/04/24 05:48:41;;;;;;;1.10;1.10;;;;;;;;;;5082810;28;20200;-69
2023/04/24 05:51:08;;;;;;;2.17;1.20;;;;;;;;;;5083058;28;20205;-69
2023/04/24 05:53:34;;;;;;;3.42;1.20;;;;;;;;;;5083116;28;20445;-69
2023/04/24 05:56:01;;;;;;;1.15;0.77;;;;;;;;;;5083040;28;20549;-69
2023/04/24 05:58:28;;;;;;;1.58;1.17;;;;;;;;;;5082634;28;20555;-69
2023/04/24 06:00:55;;;;;;;1.58;1.20;;;;;;;;;;5082792;28;20569;-69
2023/04/24 06:03:21;;;;;;;1.17;1.17;;;;;;;;;;5082566;28;20220;-69
2023/04/24 06:05:47;;;;;;;1.25;1.15;;;;;;;;;;5082858;28;20196;-69
2023/04/24 06:08:14;;;;;;;1.45;1.20;;;;;;;;;;5082514;28;20247;-69
2023/04/24 06:10:40;;;;;;;0.90;0.90;;;;;;;;;;5074496;28;20432;-68
2023/04/24 06:13:07;;;;;;;1.33;1.20;;;;;;;;;;5082508;28;20212;-68
2023/04/24 06:15:34;;;;;;;1.92;1.35;;;;;;;;;;5082447;28;20205;-68
2023/04/24 06:18:00;;;;;;;1.92;1.45;;;;;;;;;;5082039;28;20219;-68
2023/04/24 06:20:26;;;;;;;1.83;1.30;;;;;;;;;;5082748;28;20196;-68
2023/04/24 06:22:53;;;;;;;1.75;1.25;;;;;;;;;;5082568;28;20196;-68
2023/04/24 06:25:20;;;;;;;1.05;1.05;;;;;;;;;;5082330;28;20259;-68
2023/04/24 06:27:46;;;;;;;1.85;1.40;;;;;;;;;;5081986;28;20220;-68
2023/04/24 06:30:13;;;;;;;1.52;1.38;;;;;;;;;;5082276;28;20360;-69
2023/04/24 06:32:40;;;;;;;1.95;1.60;;;;;;;;;;5082272;28;20197;-69
2023/04/24 06:35:07;;;;;;;1.55;1.27;;;;;;;;;;5082363;28;20376;-69
2023/04/24 06:37:34;;;;;;;1.73;1.63;;;;;;;;;;5081878;28;20235;-69
2023/04/24 06:40:00;;;;;;;1.60;1.50;;;;;;;;;;5082188;28;20219;-69
2023/04/24 06:42:26;;;;;;;6.53;1.85;;;;;;;;;;5082021;28;20238;-69
2023/04/24 06:44:52;;;;;;;1.80;1.70;;;;;;;;;;5081682;28;20234;-69
2023/04/24 06:47:20;;;;;;;1.60;1.52;;;;;;;;;;5082098;28;20222;-69
2023/04/24 06:49:46;;;;;;;1.40;1.30;;;;;;;;;;5082672;28;20208;-69
2023/04/24 06:52:12;;;;;;;1.65;1.10;;;;;;;;;;5082245;28;20258;-69
2023/04/24 06:54:39;;;;;;;1.50;1.40;;;;;;;;;;5082153;28;20208;-69
2023/04/24 06:57:05;;;;;;;27.83;13.13;;;;;;;;;;5081897;28;20220;-69
2023/04/24 06:59:31;;;;;;;64.40;26.40;;;;;;;;;;5081681;28;20196;-68
2023/04/24 07:01:57;;;;;;;40.22;15.05;;;;;;;;;;5082190;28;20330;-69
2023/04/24 07:04:25;;;;;;;71.82;30.33;;;;;;;;;;5082041;28;20200;-68
2023/04/24 07:06:52;;;;;;;6.75;2.88;;;;;;;;;;5082135;28;20193;-68
2023/04/24 07:09:18;;;;;;;9.38;5.03;;;;;;;;;;5081737;28;20208;-68
2023/04/24 07:11:45;;;;;;;5.22;3.60;;;;;;;;;;5082099;28;20197;-68
2023/04/24 07:14:11;;;;;;;8.00;4.90;;;;;;;;;;5081628;28;20254;-71
2023/04/24 07:16:38;;;;;;;1.55;1.45;;;;;;;;;;5081372;28;20201;-68
2023/04/24 07:19:04;;;;;;;17.60;9.73;;;;;;;;;;5081805;28;20196;-69
2023/04/24 07:21:32;;;;;;;1.80;1.70;;;;;;;;;;5081754;28;20210;-69
2023/04/24 07:23:58;;;;;;;1.30;1.30;;;;;;;;;;5081727;28;20504;-68
2023/04/24 07:26:24;;;;;;;7.68;4.30;;;;;;;;;;5081702;28;20504;-68
2023/04/24 07:28:50;;;;;;;1.88;1.77;;;;;;;;;;5081360;28;20220;-68
2023/04/24 07:31:17;;;;;;;2.78;2.58;;;;;;;;;;5081827;28;20242;-69
2023/04/24 07:33:43;;;;;;;1.20;1.10;;;;;;;;;;5081797;28;20234;-69
2023/04/24 07:36:15;;;;;;;1.55;1.40;;;;;;;;;;5081535;28;20197;-69
2023/04/24 07:38:42;;;;;;;2.85;1.40;;;;;;;;;;5081229;28;20213;-69
2023/04/24 07:41:08;;;;;;;0.98;0.98;;;;;;;;;;5081561;28;20322;-69
2023/04/24 07:43:35;;;;;;;1.27;1.02;;;;;;;;;;5081244;28;20234;-69
2023/04/24 07:46:01;;;;;;;1.73;1.08;;;;;;;;;;5081709;28;20242;-69
2023/04/24 07:48:27;;;;;;;1.83;1.73;;;;;;;;;;5081359;28;20433;-69
2023/04/24 07:50:53;;;;;;;1.13;0.75;;;;;;;;;;5081378;28;20197;-69
2023/04/24 07:53:20;;;;;;;1.20;1.00;;;;;;;;;;5081486;28;20200;-69
2023/04/24 07:55:47;;;;;;;1.00;1.00;;;;;;;;;;5082349;28;20200;-69
2023/04/24 07:58:14;;;;;;;2.63;1.00;;;;;;;;;;5085094;28;20216;-69
2023/04/24 08:00:40;;;;;;;1.00;1.00;;;;;;;;;;5085266;28;20507;-69
2023/04/24 08:03:06;;;;;;;0.73;0.73;;;;;;;;;;5085099;28;20250;-69
2023/04/24 08:05:32;;;;;;;1.60;1.17;;;;;;;;;;5085283;28;20219;-69
2023/04/24 08:07:59;;;;;;;0.90;0.90;;;;;;;;;;5084908;28;20214;-69
2023/04/24 08:10:26;;;;;;;2.72;2.53;;;;;;;;;;5084865;28;20258;-69
2023/04/24 08:12:55;;;;;;;1.48;1.00;;;;;;;;;;5085050;28;20197;-69
2023/04/24 08:15:21;;;;;;;1.25;0.73;;;;;;;;;;5085115;28;20203;-69
2023/04/24 08:17:47;;;;;;;1.60;0.70;;;;;;;;;;5084613;28;20217;-69
2023/04/24 08:20:14;;;;;;;0.85;0.80;;;;;;;;;;5084899;28;20412;-69
2023/04/24 08:22:40;;;;;;;0.82;0.82;;;;;;;;;;5084634;28;20246;-69
2023/04/24 08:25:07;;;;;;;0.73;0.73;;;;;;;;;;5084745;28;20204;-69
2023/04/24 08:27:33;;;;;;;0.80;0.80;;;;;;;;;;5084429;28;20213;-68
2023/04/24 08:30:01;;;;;;;0.73;0.73;;;;;;;;;;5084729;28;20242;-68
2023/04/24 08:32:28;;;;;;;2.13;0.90;;;;;;;;;;5084514;28;20430;-68
2023/04/24 08:34:56;;;;;;;1.00;0.90;;;;;;;;;;5084512;28;20511;-68
2023/04/24 08:37:22;;;;;;;0.88;0.88;;;;;;;;;;5084120;28;20226;-69
2023/04/24 08:39:48;;;;;;;0.93;0.90;;;;;;;;;;5084163;28;20422;-69
2023/04/24 08:42:15;;;;;;;1.65;0.98;;;;;;;;;;5084701;28;20391;-68
2023/04/24 08:44:41;;;;;;;1.00;0.73;;;;;;;;;;5084195;28;20250;-68
2023/04/24 08:47:09;;;;;;;3.05;1.10;;;;;;;;;;5084614;28;20197;-68
2023/04/24 08:49:36;;;;;;;1.00;1.00;;;;;;;;;;5083943;28;20200;-68
2023/04/24 08:52:03;;;;;;;0.75;0.75;;;;;;;;;;5084023;28;20200;-68
2023/04/24 08:54:30;;;;;;;1.77;1.00;;;;;;;;;;5084396;28;20201;-69
2023/04/24 08:57:00;;;;;;;0.90;0.90;;;;;;;;;;5084244;28;20219;-69
2023/04/24 08:59:27;;;;;;;2.47;1.08;;;;;;;;;;5083769;28;20199;-69
2023/04/24 09:01:53;;;;;;;1.27;1.27;;;;;;;;;;5084129;28;20200;-69
2023/04/24 09:04:24;;;;;;;0.90;0.90;;;;;;;;;;5083875;28;20557;-69
2023/04/24 09:06:50;;;;;;;1.33;0.80;;;;;;;;;;5083556;28;20263;-69
2023/04/24 09:09:17;;;;;;;0.98;0.95;;;;;;;;;;5083873;28;20327;-69
2023/04/24 09:11:43;;;;;;;1.23;1.20;;;;;;;;;;5083969;28;20228;-69
2023/04/24 09:14:10;;;;;;;1.10;1.00;;;;;;;;;;5083735;28;20562;-69
2023/04/24 09:16:36;;;;;;;3.92;1.13;;;;;;;;;;5083932;28;20401;-69
2023/04/24 09:19:03;;;;;;;1.75;0.90;;;;;;;;;;5083504;28;20216;-69
2023/04/24 09:21:33;;;;;;;0.90;0.90;;;;;;;;;;5083476;28;20412;-68
2023/04/24 09:24:01;;;;;;;1.13;1.02;;;;;;;;;;5083672;28;20224;-68
2023/04/24 09:26:31;;;;;;;1.92;1.00;;;;;;;;;;5083455;28;20268;-68
2023/04/24 09:28:57;;;;;;;3.30;0.80;;;;;;;;;;5083367;28;20279;-68
2023/04/24 09:31:24;;;;;;;1.52;1.10;;;;;;;;;;5083508;28;20503;-68
2023/04/24 09:33:57;;;;;;;1.30;1.20;;;;;;;;;;5083130;28;20235;-68
2023/04/24 09:36:32;;;;;;;1.80;1.20;;;;;;;;;;5083428;28;20196;-68
2023/04/24 09:39:00;;;;;;;1.85;1.00;;;;;;;;;;5075766;28;20215;-68
2023/04/24 09:41:27;;;;;;;0.95;0.95;;;;;;;;;;5083274;28;20204;-68
2023/04/24 09:43:54;;;;;;;1.27;1.05;;;;;;;;;;5083018;28;20196;-68
2023/04/24 09:46:21;;;;;;;3.22;1.10;;;;;;;;;;5082986;28;20460;-69
2023/04/24 09:48:47;;;;;;;2.53;0.98;;;;;;;;;;5083000;28;20209;-69
2023/04/24 09:51:15;;;;;;;1.38;1.00;;;;;;;;;;5083210;28;20250;-69
2023/04/24 09:53:46;;;;;;;0.88;0.88;;;;;;;;;;5083021;28;20200;-68
2023/04/24 09:56:13;;;;;;;0.70;0.70;;;;;;;;;;5083071;28;20504;-69
2023/04/24 09:58:39;;;;;;;1.40;0.70;;;;;;;;;;5082975;28;20551;-69
2023/04/24 10:01:06;;;;;;;0.63;0.63;;;;;;;;;;5082784;28;20205;-69
2023/04/24 10:03:32;;;;;;;2.67;0.60;;;;;;;;;;5082963;28;20242;-69
2023/04/24 10:05:59;;;;;;;3.67;0.80;;;;;;;;;;5082781;28;20204;-69
2023/04/24 10:08:26;;;;;;;1.00;0.60;;;;;;;;;;5082583;28;20260;-69
2023/04/24 10:10:53;;;;;;;1.38;0.70;;;;;;;;;;5082639;28;20196;-69
2023/04/24 10:13:21;;;;;;;1.20;0.70;;;;;;;;;;5082590;28;20493;-69
2023/04/24 10:15:48;;;;;;;0.80;0.80;;;;;;;;;;5082424;28;20201;-69
2023/04/24 10:18:16;;;;;;;0.63;0.63;;;;;;;;;;5081656;28;20589;-69
2023/04/24 10:20:42;;;;;;;2.60;0.70;;;;;;;;;;5082426;28;20560;-69
2023/04/24 10:23:08;;;;;;;0.85;0.68;;;;;;;;;;5082498;28;20243;-70
2023/04/24 10:25:36;;;;;;;1.48;0.93;;;;;;;;;;5082229;28;20512;-70
2023/04/24 10:28:02;;;;;;;1.33;0.80;;;;;;;;;;5081953;28;20299;-68
2023/04/24 10:30:34;;;;;;;0.70;0.70;;;;;;;;;;5082514;28;20550;-69
2023/04/24 10:33:00;;;;;;;0.82;0.77;;;;;;;;;;5075052;28;20220;-69
2023/04/24 10:35:27;;;;;;;0.75;0.75;;;;;;;;;;5082256;28;20202;-69
2023/04/24 10:37:55;;;;;;;0.70;0.70;;;;;;;;;;5081785;28;20213;-69
2023/04/24 10:40:26;;;;;;;0.60;0.60;;;;;;;;;;5082170;28;20197;-69
2023/04/24 10:42:53;;;;;;;0.75;0.75;;;;;;;;;;5082323;28;20200;-69
2023/04/24 10:45:21;;;;;;;0.80;0.80;;;;;;;;;;5082519;28;20196;-69
2023/04/24 10:47:57;;;;;;;0.95;0.60;;;;;;;;;;5081868;28;20201;-69
2023/04/24 10:50:23;;;;;;;1.02;0.73;;;;;;;;;;5081947;28;20531;-69
2023/04/24 10:52:51;;;;;;;0.85;0.60;;;;;;;;;;5082313;28;20246;-69
2023/04/24 10:55:17;;;;;;;0.57;0.57;;;;;;;;;;5081898;28;20204;-69
2023/04/24 10:57:59;;;;;;;1.67;0.50;;;;;;;;;;5081651;28;20209;-68
2023/04/24 11:00:27;;;;;;;0.40;0.40;;;;;;;;;;5081835;28;20219;-68
2023/04/24 11:02:55;;;;;;;0.63;0.63;;;;;;;;;;5081954;28;20447;-68
2023/04/24 11:05:23;;;;;;;0.50;0.50;;;;;;;;;;5081846;28;20263;-68
2023/04/24 11:08:08;;;;;;;0.57;0.57;;;;;;;;;;5081856;28;20200;-68
2023/04/24 11:10:34;;;;;;;0.50;0.50;;;;;;;;;;5081591;28;20203;-69
2023/04/24 11:13:02;;;;;;;1.65;0.60;;;;;;;;;;5082239;28;20222;-69
2023/04/24 11:15:29;;;;;;;1.17;0.50;;;;;;;;;;5081876;28;20204;-69
2023/04/24 11:17:56;;;;;;;1.95;0.65;;;;;;;;;;5081269;28;20196;-68
2023/04/24 11:20:25;;;;;;;0.63;0.63;;;;;;;;;;5081977;28;20201;-68
2023/04/24 11:22:53;;;;;;;0.47;0.47;;;;;;;;;;5081843;28;20200;-68
2023/04/24 11:25:21;;;;;;;1.55;0.57;;;;;;;;;;5081917;28;20211;-68
2023/04/24 11:27:48;;;;;;;0.45;0.45;;;;;;;;;;5081797;28;20220;-68
2023/04/24 11:30:18;;;;;;;0.50;0.50;;;;;;;;;;5083496;28;20204;-68
2023/04/24 11:32:44;;;;;;;0.77;0.77;;;;;;;;;;5085909;28;20207;-68
2023/04/24 11:35:14;;;;;;;2.55;0.70;;;;;;;;;;5085857;28;20392;-68
2023/04/24 11:37:41;;;;;;;0.50;0.50;;;;;;;;;;5085665;28;20515;-68
2023/04/24 11:40:09;;;;;;;0.80;0.65;;;;;;;;;;5085708;28;20215;-68
2023/04/24 11:42:35;;;;;;;0.60;0.60;;;;;;;;;;5085458;28;20527;-68
2023/04/24 11:45:02;;;;;;;2.03;0.80;;;;;;;;;;5085443;28;20200;-68
2023/04/24 11:47:28;;;;;;;0.90;0.90;;;;;;;;;;5085405;28;20196;-69
2023/04/24 11:49:55;;;;;;;0.77;0.77;;;;;;;;;;5085590;28;20262;-69
2023/04/24 11:52:22;;;;;;;1.25;0.98;;;;;;;;;;5085461;28;20425;-69
2023/04/24 11:54:49;;;;;;;2.05;0.85;;;;;;;;;;5085203;28;20200;-69
2023/04/24 11:57:16;;;;;;;2.88;0.63;;;;;;;;;;5085077;28;20500;-69
2023/04/24 11:59:42;;;;;;;0.77;0.77;;;;;;;;;;5085239;28;20266;-69
2023/04/24 12:02:08;;;;;;;0.60;0.60;;;;;;;;;;5085386;28;20204;-69
2023/04/24 12:04:41;;;;;;;1.38;0.75;;;;;;;;;;5085142;28;20233;-69
2023/04/24 12:07:08;;;;;;;1.55;0.80;;;;;;;;;;5077949;28;20203;-69
2023/04/24 12:09:46;;;;;;;0.80;0.80;;;;;;;;;;5084848;28;20204;-69
2023/04/24 12:12:13;;;;;;;2.05;1.00;;;;;;;;;;5078215;28;20196;-69
2023/04/24 12:14:43;;;;;;;1.88;0.90;;;;;;;;;;5084774;28;20242;-69
2023/04/24 12:17:09;;;;;;;3.38;0.73;;;;;;;;;;5084989;28;20259;-69
2023/04/24 12:19:36;;;;;;;0.80;0.80;;;;;;;;;;5084668;28;20220;-69
2023/04/24 12:22:03;;;;;;;0.90;0.90;;;;;;;;;;5076680;28;20234;-69
2023/04/24 12:24:30;;;;;;;0.70;0.70;;;;;;;;;;5085122;28;20391;-69
2023/04/24 12:26:58;;;;;;;0.70;0.70;;;;;;;;;;5084477;28;20211;-69
2023/04/24 12:29:24;;;;;;;0.70;0.70;;;;;;;;;;5084510;28;20231;-69
2023/04/24 12:31:50;;;;;;;0.70;0.70;;;;;;;;;;5084788;28;20242;-69
2023/04/24 12:34:21;;;;;;;1.30;1.00;;;;;;;;;;5084642;28;20381;-69
2023/04/24 12:36:47;;;;;;;2.15;0.70;;;;;;;;;;5084340;28;20259;-69
2023/04/24 12:39:17;;;;;;;0.65;0.60;;;;;;;;;;5084190;28;20217;-69
2023/04/24 12:41:51;;;;;;;2.70;0.82;;;;;;;;;;5083741;28;20267;-69
2023/04/24 12:44:18;;;;;;;1.02;0.93;;;;;;;;;;5084575;28;20197;-69
2023/04/24 12:46:45;;;;;;;0.80;0.80;;;;;;;;;;5084668;28;20204;-69
2023/04/24 12:49:11;;;;;;;2.30;1.20;;;;;;;;;;5084329;28;20395;-69
2023/04/24 12:51:37;;;;;;;2.85;1.13;;;;;;;;;;5084123;28;20200;-69
2023/04/24 12:54:03;;;;;;;1.10;1.00;;;;;;;;;;5075836;28;20250;-69
2023/04/24 12:56:30;;;;;;;0.85;0.80;;;;;;;;;;5084265;28;20433;-69
2023/04/24 12:58:56;;;;;;;3.55;2.05;;;;;;;;;;5083751;28;20243;-69
2023/04/24 13:01:24;;;;;;;1.15;1.10;;;;;;;;;;5084069;28;20200;-69
2023/04/24 13:03:50;;;;;;;0.70;0.70;;;;;;;;;;5083926;28;20200;-68
2023/04/24 13:06:16;;;;;;;0.57;0.57;;;;;;;;;;5083913;28;20200;-68
2023/04/24 13:08:43;;;;;;;0.80;0.80;;;;;;;;;;5083790;28;20210;-68
2023/04/24 13:11:09;;;;;;;0.60;0.60;;;;;;;;;;5084342;28;20369;-68
2023/04/24 13:13:35;;;;;;;0.80;0.80;;;;;;;;;;5084004;28;20212;-69
2023/04/24 13:16:02;;;;;;;0.80;0.80;;;;;;;;;;5083842;28;20197;-69
2023/04/24 13:18:29;;;;;;;0.70;0.70;;;;;;;;;;5083359;28;20234;-69
2023/04/24 13:20:56;;;;;;;0.85;0.85;;;;;;;;;;5083521;28;20201;-69
2023/04/24 13:23:22;;;;;;;2.53;0.80;;;;;;;;;;5083787;28;20234;-69
2023/04/24 13:25:49;;;;;;;2.15;0.93;;;;;;;;;;5083584;28;20238;-69
2023/04/24 13:28:15;;;;;;;1.85;1.17;;;;;;;;;;5083272;28;20287;-69
2023/04/24 13:30:42;;;;;;;2.15;1.05;;;;;;;;;;5083295;28;20196;-69
2023/04/24 13:33:08;;;;;;;1.02;1.02;;;;;;;;;;5083892;28;20228;-69
2023/04/24 13:35:35;;;;;;;1.10;1.10;;;;;;;;;;5083351;28;20668;-69
2023/04/24 13:38:05;;;;;;;1.17;1.13;;;;;;;;;;5083162;28;20418;-69
2023/04/24 13:40:31;;;;;;;1.05;0.98;;;;;;;;;;5083433;28;20426;-69
2023/04/24 13:42:58;;;;;;;1.35;1.02;;;;;;;;;;5083574;28;20502;-69
2023/04/24 13:45:24;;;;;;;0.77;0.77;;;;;;;;;;5083504;28;20426;-69
2023/04/24 13:47:51;;;;;;;1.15;1.10;;;;;;;;;;5082670;28;20250;-69
2023/04/24 13:50:17;;;;;;;0.90;0.90;;;;;;;;;;5083257;28;20504;-69
2023/04/24 13:52:44;;;;;;;0.80;0.80;;;;;;;;;;5082483;28;20200;-69
2023/04/24 13:55:11;;;;;;;0.90;0.90;;;;;;;;;;5082512;28;20259;-69
2023/04/24 13:57:37;;;;;;;0.82;0.82;;;;;;;;;;5082796;28;20200;-69
2023/04/24 14:00:04;;;;;;;2.13;1.05;;;;;;;;;;5082618;28;20536;-69
2023/04/24 14:02:30;;;;;;;1.17;0.85;;;;;;;;;;5082816;28;20201;-69
2023/04/24 14:04:56;;;;;;;1.10;1.00;;;;;;;;;;5082919;28;20396;-69
2023/04/24 14:07:22;;;;;;;1.05;1.05;;;;;;;;;;5082660;28;20434;-69
2023/04/24 14:09:50;;;;;;;1.10;1.10;;;;;;;;;;5082506;28;20196;-69
2023/04/24 14:12:19;;;;;;;1.15;1.15;;;;;;;;;;5082622;28;20227;-69
2023/04/24 14:14:53;;;;;;;0.93;0.93;;;;;;;;;;5099591;28;20606;-69
2023/04/24 14:17:19;;;;;;;0.90;0.90;;;;;;;;;;5098929;28;20257;-69
2023/04/24 14:19:45;;;;;;;1.00;0.95;;;;;;;;;;5099379;28;20203;-69
2023/04/24 14:22:12;;;;;;;1.00;1.00;;;;;;;;;;5099450;28;20196;-69
2023/04/24 14:24:38;;;;;;;2.15;1.15;;;;;;;;;;5099472;28;20196;-69
2023/04/24 14:27:04;;;;;;;1.05;0.95;;;;;;;;;;5099022;28;20195;-69
2023/04/24 14:29:30;;;;;;;1.00;1.00;;;;;;;;;;5098913;28;20266;-69
2023/04/24 14:31:58;;;;;;;1.52;1.08;;;;;;;;;;5099294;28;20245;-69
2023/04/24 14:34:24;;;;;;;0.90;0.90;;;;;;;;;;5098972;28;20212;-69
2023/04/24 14:36:51;;;;;;;1.45;1.08;;;;;;;;;;5099421;28;20492;-69
2023/04/24 14:39:17;;;;;;;0.98;0.98;;;;;;;;;;5098916;28;20199;-69
2023/04/24 14:41:43;;;;;;;1.50;0.90;;;;;;;;;;5098966;28;20207;-69